createdAt,value
2022-10-17T00:00:42.902Z,2.20
2022-10-17T00:03:10.734Z,2.28
2022-10-17T00:05:45.557Z,3.10
2022-10-17T00:08:13.507Z,1.70
2022-10-17T00:10:41.283Z,1.65
2022-10-17T00:13:09.413Z,2.00
2022-10-17T00:15:37.170Z,2.20
2022-10-17T00:18:05.045Z,1.90
2022-10-17T00:20:33.087Z,1.90
2022-10-17T00:23:00.785Z,2.00
2022-10-17T00:25:28.591Z,2.00
2022-10-17T00:27:56.276Z,1.65
2022-10-17T00:30:24.042Z,2.47
2022-10-17T00:32:51.772Z,2.27
2022-10-17T00:35:19.426Z,1.65
2022-10-17T00:37:47.188Z,1.42
2022-10-17T00:40:14.837Z,2.10
2022-10-17T00:42:42.616Z,1.60
2022-10-17T00:45:22.443Z,2.25
2022-10-17T00:47:52.243Z,1.47
2022-10-17T00:50:19.884Z,1.98
2022-10-17T00:52:47.984Z,2.30
2022-10-17T00:55:17.672Z,1.85
2022-10-17T00:57:45.437Z,2.00
2022-10-17T01:00:13.298Z,1.98
2022-10-17T01:02:41.141Z,2.03
2022-10-17T01:05:09.070Z,2.20
2022-10-17T01:07:37.364Z,2.00
2022-10-17T01:10:05.779Z,2.33
2022-10-17T01:12:46.764Z,1.80
2022-10-17T01:15:32.686Z,1.92
2022-10-17T01:18:23.517Z,1.90
2022-10-17T01:21:00.409Z,0.77
2022-10-17T01:23:43.466Z,1.50
2022-10-17T01:26:29.570Z,1.00
2022-10-17T01:29:03.334Z,1.20
2022-10-17T01:31:38.497Z,1.00
2022-10-17T01:34:09.153Z,1.42
2022-10-17T01:36:38.345Z,1.45
2022-10-17T01:39:12.240Z,1.93
2022-10-17T01:41:45.228Z,1.30
2022-10-17T01:44:12.966Z,1.05
2022-10-17T01:46:41.395Z,1.60
2022-10-17T01:49:09.557Z,1.33
2022-10-17T01:51:42.379Z,1.70
2022-10-17T01:54:28.505Z,1.67
2022-10-17T01:56:57.365Z,1.90
2022-10-17T01:59:25.927Z,1.15
2022-10-17T02:01:54.367Z,1.63
2022-10-17T02:04:22.005Z,2.45
2022-10-17T02:06:49.816Z,2.10
2022-10-17T02:09:24.259Z,1.83
2022-10-17T02:12:08.029Z,1.90
2022-10-17T02:14:50.860Z,1.50
2022-10-17T02:17:18.572Z,1.42
2022-10-17T02:19:49.244Z,2.15
2022-10-17T02:22:16.961Z,2.23
2022-10-17T02:24:44.588Z,1.50
2022-10-17T02:27:16.474Z,2.20
2022-10-17T02:29:51.261Z,2.00
2022-10-17T02:32:26.008Z,2.88
2022-10-17T02:34:54.625Z,1.67
2022-10-17T02:37:23.563Z,1.25
2022-10-17T02:39:51.330Z,2.33
2022-10-17T02:42:19.202Z,1.83
2022-10-17T02:44:46.971Z,2.25
2022-10-17T02:47:17.617Z,2.33
2022-10-17T02:49:46.454Z,2.45
2022-10-17T02:52:15.767Z,1.95
2022-10-17T02:54:49.527Z,1.67
2022-10-17T02:57:22.786Z,1.50
2022-10-17T02:59:50.582Z,2.00
2022-10-17T03:02:18.237Z,2.05
2022-10-17T03:04:46.466Z,2.13
2022-10-17T03:07:14.213Z,2.90
2022-10-17T03:09:41.950Z,2.80
2022-10-17T03:12:09.602Z,2.60
2022-10-17T03:14:37.356Z,2.50
2022-10-17T03:17:05.079Z,2.30
2022-10-17T03:19:32.706Z,2.30
2022-10-17T03:22:00.417Z,2.65
2022-10-17T03:24:28.091Z,2.50
2022-10-17T03:26:55.817Z,2.70
2022-10-17T03:29:23.486Z,2.43
2022-10-17T03:31:51.204Z,3.13
2022-10-17T03:34:19.018Z,2.80
2022-10-17T03:36:46.768Z,3.27
2022-10-17T03:39:14.465Z,2.75
2022-10-17T03:41:42.322Z,3.10
2022-10-17T03:44:09.952Z,2.97
2022-10-17T03:46:37.675Z,2.30
2022-10-17T03:49:05.340Z,2.88
2022-10-17T03:51:34.907Z,2.50
2022-10-17T03:54:02.819Z,2.43
2022-10-17T03:56:30.590Z,3.33
2022-10-17T03:58:58.319Z,2.13
2022-10-17T04:01:26.086Z,3.40
2022-10-17T04:03:54.961Z,2.58
2022-10-17T04:06:22.821Z,3.50
2022-10-17T04:08:50.615Z,3.40
2022-10-17T04:11:19.708Z,3.13
2022-10-17T04:13:47.460Z,2.90
2022-10-17T04:16:15.993Z,3.22
2022-10-17T04:18:43.691Z,3.67
2022-10-17T04:21:11.515Z,3.65
2022-10-17T04:23:39.195Z,3.80
2022-10-17T04:26:07.489Z,3.70
2022-10-17T04:28:35.263Z,3.95
2022-10-17T04:31:03.918Z,3.70
2022-10-17T04:33:31.605Z,3.50
2022-10-17T04:36:06.257Z,3.28
2022-10-17T04:38:34.052Z,3.45
2022-10-17T04:41:03.399Z,4.13
2022-10-17T04:43:31.612Z,3.73
2022-10-17T04:46:00.528Z,3.88
2022-10-17T04:48:28.757Z,3.50
2022-10-17T04:50:56.973Z,3.50
2022-10-17T04:53:24.974Z,3.88
2022-10-17T04:55:52.632Z,3.42
2022-10-17T04:58:20.666Z,3.80
2022-10-17T05:00:48.369Z,3.97
2022-10-17T05:03:16.352Z,3.50
2022-10-17T05:05:44.139Z,4.03
2022-10-17T05:08:12.121Z,4.00
2022-10-17T05:10:41.290Z,4.10
2022-10-17T05:13:09.044Z,3.67
2022-10-17T05:15:36.815Z,3.67
2022-10-17T05:18:05.028Z,3.95
2022-10-17T05:20:32.781Z,4.78
2022-10-17T05:23:00.646Z,3.90
2022-10-17T05:25:28.929Z,4.03
2022-10-17T05:27:56.614Z,4.55
2022-10-17T05:30:24.944Z,4.05
2022-10-17T05:32:53.850Z,4.87
2022-10-17T05:35:21.814Z,4.30
2022-10-17T05:37:49.564Z,4.97
2022-10-17T05:40:17.211Z,4.47
2022-10-17T05:42:51.024Z,4.80
2022-10-17T05:45:18.781Z,5.13
2022-10-17T05:47:46.498Z,4.47
2022-10-17T05:50:14.226Z,4.82
2022-10-17T05:52:43.915Z,5.03
2022-10-17T05:55:14.109Z,4.57
2022-10-17T05:57:41.920Z,4.47
2022-10-17T06:00:10.019Z,5.07
2022-10-17T06:02:37.745Z,5.03
2022-10-17T06:05:05.537Z,4.80
2022-10-17T06:07:33.219Z,4.90
2022-10-17T06:10:01.283Z,4.28
2022-10-17T06:12:30.588Z,4.77
2022-10-17T06:14:58.429Z,4.40
2022-10-17T06:17:26.174Z,5.28
2022-10-17T06:19:53.862Z,5.60
2022-10-17T06:22:21.528Z,4.97
2022-10-17T06:24:49.209Z,4.60
2022-10-17T06:27:16.939Z,4.78
2022-10-17T06:29:44.578Z,5.23
2022-10-17T06:32:14.948Z,4.72
2022-10-17T06:34:43.222Z,3.83
2022-10-17T06:37:11.011Z,4.97
2022-10-17T06:39:38.802Z,4.35
2022-10-17T06:42:06.538Z,5.43
2022-10-17T06:44:34.660Z,4.88
2022-10-17T06:47:02.517Z,4.37
2022-10-17T06:49:30.196Z,4.80
2022-10-17T06:51:57.878Z,5.05
2022-10-17T06:54:25.581Z,5.40
2022-10-17T06:56:53.282Z,5.38
2022-10-17T06:59:20.996Z,5.50
2022-10-17T07:01:48.696Z,6.25
2022-10-17T07:04:16.797Z,5.60
2022-10-17T07:06:44.495Z,5.45
2022-10-17T07:09:12.204Z,4.63
2022-10-17T07:11:40.363Z,5.30
2022-10-17T07:14:08.093Z,4.88
2022-10-17T07:16:35.899Z,5.00
2022-10-17T07:19:03.871Z,5.10
2022-10-17T07:21:35.228Z,5.35
2022-10-17T07:24:07.290Z,5.57
2022-10-17T07:26:35.007Z,5.80
2022-10-17T07:29:02.751Z,6.07
2022-10-17T07:31:30.520Z,6.25
2022-10-17T07:34:00.396Z,6.70
2022-10-17T07:36:28.063Z,5.67
2022-10-17T07:38:56.663Z,4.40
2022-10-17T07:41:24.791Z,5.28
2022-10-17T07:43:52.474Z,6.20
2022-10-17T07:46:20.230Z,6.57
2022-10-17T07:48:47.914Z,5.97
2022-10-17T07:51:15.781Z,4.65
2022-10-17T07:53:47.959Z,5.07
2022-10-17T07:56:16.669Z,5.78
2022-10-17T07:58:44.480Z,5.10
2022-10-17T08:01:16.243Z,4.00
2022-10-17T08:03:47.145Z,4.97
2022-10-17T08:06:17.917Z,5.25
2022-10-17T08:08:47.681Z,4.83
2022-10-17T08:11:16.864Z,5.38
2022-10-17T08:13:44.560Z,4.82
2022-10-17T08:16:13.083Z,4.68
2022-10-17T08:18:41.165Z,5.60
2022-10-17T08:21:09.367Z,3.65
2022-10-17T08:23:37.503Z,4.93
2022-10-17T08:26:06.041Z,5.10
2022-10-17T08:28:35.529Z,4.65
2022-10-17T08:31:04.428Z,4.13
2022-10-17T08:33:33.334Z,4.67
2022-10-17T08:36:03.475Z,3.63
2022-10-17T08:38:35.121Z,5.03
2022-10-17T08:41:08.012Z,3.88
2022-10-17T08:43:42.865Z,4.90
2022-10-17T08:46:10.603Z,4.13
2022-10-17T08:48:45.615Z,5.20
2022-10-17T08:51:20.692Z,5.13
2022-10-17T08:53:58.902Z,6.03
2022-10-17T08:56:47.513Z,5.28
2022-10-17T08:59:15.694Z,5.17
2022-10-17T09:02:01.393Z,3.88
2022-10-17T09:04:44.263Z,4.25
2022-10-17T09:07:11.923Z,4.50
2022-10-17T09:09:39.605Z,4.47
2022-10-17T09:12:28.326Z,4.35
2022-10-17T09:14:58.952Z,4.25
2022-10-17T09:17:32.638Z,4.70
2022-10-17T09:20:01.889Z,3.65
2022-10-17T09:22:31.400Z,4.05
2022-10-17T09:25:03.592Z,4.53
2022-10-17T09:27:39.866Z,4.70
2022-10-17T09:30:44.036Z,4.88
2022-10-17T09:33:35.576Z,4.18
2022-10-17T09:36:12.028Z,4.28
2022-10-17T09:38:46.703Z,4.43
2022-10-17T09:44:14.983Z,3.90
2022-10-17T09:46:42.578Z,4.57
2022-10-17T09:49:14.812Z,3.90
2022-10-17T09:51:44.170Z,4.07
2022-10-17T09:54:20.607Z,4.13
2022-10-17T09:57:04.397Z,4.15
2022-10-17T09:59:33.106Z,4.32
2022-10-17T10:02:09.682Z,4.00
2022-10-17T10:04:53.083Z,4.22
2022-10-17T10:07:29.105Z,4.43
2022-10-17T10:09:57.333Z,4.80
2022-10-17T10:12:26.251Z,4.47
2022-10-17T10:14:55.418Z,4.38
2022-10-17T10:17:41.797Z,5.00
2022-10-17T10:20:46.966Z,4.60
2022-10-17T10:23:19.631Z,4.47
2022-10-17T10:25:51.281Z,5.60
2022-10-17T10:28:18.964Z,4.40
2022-10-17T10:30:48.248Z,4.50
2022-10-17T10:33:15.873Z,5.57
2022-10-17T10:35:43.572Z,4.70
2022-10-17T10:38:12.626Z,4.55
2022-10-17T10:40:45.886Z,4.93
2022-10-17T10:43:23.866Z,4.80
2022-10-17T10:45:51.455Z,4.88
2022-10-17T10:48:23.230Z,4.63
2022-10-17T10:50:53.570Z,4.55
2022-10-17T10:53:35.641Z,4.75
2022-10-17T10:56:03.305Z,4.60
2022-10-17T10:58:50.880Z,4.85
2022-10-17T11:01:38.698Z,4.47
2022-10-17T11:04:25.150Z,5.30
2022-10-17T11:06:53.649Z,4.55
2022-10-17T11:09:28.821Z,4.40
2022-10-17T11:12:00.561Z,4.22
2022-10-17T11:14:37.390Z,4.95
2022-10-17T11:17:20.887Z,4.43
2022-10-17T11:19:57.144Z,4.80
2022-10-17T11:22:29.484Z,5.20
2022-10-17T11:25:01.159Z,4.90
2022-10-17T11:27:29.521Z,4.87
2022-10-17T11:29:57.445Z,4.82
2022-10-17T11:32:30.379Z,4.97
2022-10-17T11:35:04.794Z,4.37
2022-10-17T11:37:36.134Z,5.10
2022-10-17T11:40:05.891Z,4.90
2022-10-17T11:42:41.348Z,4.50
2022-10-17T11:45:16.327Z,4.63
2022-10-17T11:48:03.628Z,4.50
2022-10-17T11:53:24.008Z,5.03
2022-10-17T11:55:51.787Z,4.55
2022-10-17T11:58:38.652Z,4.72
2022-10-17T12:01:24.971Z,5.10
2022-10-17T12:04:00.403Z,4.78
2022-10-17T12:06:43.142Z,5.32
2022-10-17T12:09:10.729Z,4.68
2022-10-17T12:11:43.765Z,4.90
2022-10-17T12:14:29.949Z,4.43
2022-10-17T12:16:58.822Z,5.00
2022-10-17T12:19:28.718Z,4.93
2022-10-17T12:22:00.107Z,5.30
2022-10-17T12:24:31.534Z,4.60
2022-10-17T12:26:59.367Z,5.00
2022-10-17T12:29:28.423Z,4.30
2022-10-17T12:31:56.273Z,4.10
2022-10-17T12:34:23.981Z,4.47
2022-10-17T12:36:51.738Z,3.97
2022-10-17T12:39:19.428Z,4.18
2022-10-17T12:41:47.056Z,4.00
2022-10-17T12:44:15.660Z,4.30
2022-10-17T12:46:53.423Z,3.97
2022-10-17T12:49:27.015Z,3.80
2022-10-17T12:52:13.962Z,3.20
2022-10-17T12:54:53.549Z,3.08
2022-10-17T12:57:39.824Z,3.03
2022-10-17T13:00:18.373Z,3.00
2022-10-17T13:02:46.049Z,3.08
2022-10-17T13:05:17.802Z,2.63
2022-10-17T13:07:45.473Z,2.80
2022-10-17T13:10:24.116Z,3.00
2022-10-17T13:12:53.393Z,3.17
2022-10-17T13:15:24.792Z,2.80
2022-10-17T13:17:57.292Z,3.77
2022-10-17T13:20:31.315Z,2.95
2022-10-17T13:23:06.077Z,3.13
2022-10-17T13:25:38.813Z,2.95
2022-10-17T13:28:13.897Z,2.67
2022-10-17T13:30:49.801Z,2.78
2022-10-17T13:33:32.989Z,2.35
2022-10-17T13:36:01.891Z,2.30
2022-10-17T13:38:37.768Z,2.10
2022-10-17T13:41:34.975Z,2.20
2022-10-17T13:44:14.756Z,1.90
2022-10-17T13:46:44.121Z,2.35
2022-10-17T13:49:31.067Z,1.55
2022-10-17T13:52:02.147Z,1.95
2022-10-17T13:54:37.281Z,1.73
2022-10-17T13:57:08.856Z,2.30
2022-10-17T13:59:44.596Z,2.15
2022-10-17T14:02:21.761Z,2.80
2022-10-17T14:05:17.675Z,2.45
2022-10-17T14:08:10.731Z,2.50
2022-10-17T14:10:40.629Z,2.13
2022-10-17T14:13:17.714Z,2.38
2022-10-17T14:15:52.237Z,2.25
2022-10-17T14:18:23.859Z,2.28
2022-10-17T14:23:49.198Z,2.10
2022-10-17T14:26:27.420Z,1.98
2022-10-17T14:29:12.358Z,2.10
2022-10-17T14:31:46.092Z,2.03
2022-10-17T14:34:24.311Z,2.72
2022-10-17T14:36:52.635Z,1.90
2022-10-17T14:39:21.363Z,1.80
2022-10-17T14:41:49.106Z,2.00
2022-10-17T14:44:30.314Z,1.90
2022-10-17T14:47:18.225Z,1.98
2022-10-17T14:49:52.774Z,2.20
2022-10-17T14:52:20.434Z,1.90
2022-10-17T14:54:48.612Z,1.90
2022-10-17T14:57:18.623Z,1.63
2022-10-17T14:59:54.986Z,2.08
2022-10-17T15:02:26.658Z,2.00
2022-10-17T15:04:54.679Z,1.80
2022-10-17T15:07:22.630Z,2.42
2022-10-17T15:09:56.367Z,2.00
2022-10-17T15:12:25.757Z,1.70
2022-10-17T15:14:57.519Z,1.80
2022-10-17T15:17:30.387Z,1.67
2022-10-17T15:20:03.009Z,2.00
2022-10-17T15:22:35.314Z,1.65
2022-10-17T15:25:09.577Z,2.00
2022-10-17T15:27:41.507Z,1.33
2022-10-17T15:30:22.348Z,1.90
2022-10-17T15:32:56.217Z,2.10
2022-10-17T15:35:27.226Z,1.98
2022-10-17T15:37:57.106Z,1.77
2022-10-17T15:40:31.626Z,2.05
2022-10-17T15:43:16.162Z,1.63
2022-10-17T15:45:47.837Z,1.63
2022-10-17T15:48:23.207Z,1.92
2022-10-17T15:50:53.834Z,1.50
2022-10-17T15:53:26.746Z,1.80
2022-10-17T15:55:58.678Z,1.52
2022-10-17T15:58:29.176Z,1.50
2022-10-17T16:00:56.857Z,1.52
2022-10-17T16:03:24.648Z,1.75
2022-10-17T16:05:54.655Z,1.80
2022-10-17T16:08:25.662Z,1.50
2022-10-17T16:10:54.275Z,1.70
2022-10-17T16:13:25.358Z,1.50
2022-10-17T16:15:55.072Z,1.73
2022-10-17T16:18:31.165Z,1.60
2022-10-17T16:21:01.851Z,1.58
2022-10-17T16:23:30.713Z,1.65
2022-10-17T16:26:02.399Z,1.38
2022-10-17T16:28:33.264Z,1.58
2022-10-17T16:31:04.308Z,1.50
2022-10-17T16:33:34.861Z,1.73
2022-10-17T16:36:04.383Z,1.30
2022-10-17T16:38:36.662Z,1.80
2022-10-17T16:41:24.722Z,1.80
2022-10-17T16:43:55.632Z,1.80
2022-10-17T16:46:29.506Z,1.80
2022-10-17T16:48:57.350Z,2.10
2022-10-17T16:51:28.433Z,1.80
2022-10-17T16:54:01.429Z,1.95
2022-10-17T16:56:35.452Z,1.80
2022-10-17T16:59:04.508Z,1.50
2022-10-17T17:01:38.351Z,1.90
2022-10-17T17:04:07.945Z,1.38
2022-10-17T17:06:38.391Z,1.90
2022-10-17T17:09:09.756Z,2.00
2022-10-17T17:11:39.377Z,1.90
2022-10-17T17:14:12.157Z,1.85
2022-10-17T17:16:46.711Z,1.85
2022-10-17T17:19:20.549Z,1.90
2022-10-17T17:21:51.162Z,2.30
2022-10-17T17:24:38.036Z,2.20
2022-10-17T17:27:15.063Z,1.90
2022-10-17T17:29:44.923Z,2.00
2022-10-17T17:32:17.863Z,2.20
2022-10-17T17:34:52.626Z,1.87
2022-10-17T17:37:24.069Z,1.92
2022-10-17T17:39:51.816Z,2.17
2022-10-17T17:42:19.938Z,2.30
2022-10-17T17:44:48.624Z,1.95
2022-10-17T17:47:16.429Z,2.03
2022-10-17T17:49:44.445Z,2.55
2022-10-17T17:52:12.258Z,2.27
2022-10-17T17:54:40.984Z,2.55
2022-10-17T17:57:08.980Z,2.28
2022-10-17T17:59:36.698Z,2.20
2022-10-17T18:02:06.478Z,2.38
2022-10-17T18:04:34.429Z,2.40
2022-10-17T18:07:02.185Z,2.55
2022-10-17T18:09:29.913Z,2.38
2022-10-17T18:11:57.553Z,2.10
2022-10-17T18:14:25.816Z,2.67
2022-10-17T18:16:53.690Z,2.30
2022-10-17T18:19:23.899Z,2.40
2022-10-17T18:21:51.627Z,2.83
2022-10-17T18:24:19.809Z,2.40
2022-10-17T18:26:47.472Z,2.53
2022-10-17T18:29:16.015Z,2.67
2022-10-17T18:31:43.780Z,2.80
2022-10-17T18:34:11.564Z,3.33
2022-10-17T18:36:39.339Z,2.72
2022-10-17T18:39:07.028Z,2.80
2022-10-17T18:41:35.002Z,3.20
2022-10-17T18:44:05.870Z,3.22
2022-10-17T18:46:36.613Z,3.35
2022-10-17T18:49:04.338Z,3.20
2022-10-17T18:51:32.110Z,3.38
2022-10-17T18:53:59.946Z,3.40
2022-10-17T18:56:29.016Z,3.90
2022-10-17T18:58:56.843Z,3.70
2022-10-17T19:01:26.279Z,3.35
2022-10-17T19:03:54.591Z,3.80
2022-10-17T19:06:23.403Z,3.57
2022-10-17T19:08:51.248Z,3.78
2022-10-17T19:11:25.500Z,3.90
2022-10-17T19:13:57.332Z,3.80
2022-10-17T19:16:33.297Z,3.80
2022-10-17T19:19:06.604Z,4.05
2022-10-17T19:21:39.491Z,3.60
2022-10-17T19:24:08.316Z,3.53
2022-10-17T19:26:39.718Z,3.47
2022-10-17T19:29:18.537Z,4.03
2022-10-17T19:31:53.421Z,3.80
2022-10-17T19:34:39.128Z,4.15
2022-10-17T19:37:11.612Z,3.95
2022-10-17T19:39:40.690Z,3.97
2022-10-17T19:42:11.819Z,4.10
2022-10-17T19:44:43.418Z,3.90
2022-10-17T19:47:12.925Z,4.90
2022-10-17T19:49:47.700Z,4.20
2022-10-17T19:52:23.674Z,4.30
2022-10-17T19:54:56.332Z,4.50
2022-10-17T19:57:39.102Z,4.60
2022-10-17T20:00:19.940Z,4.95
2022-10-17T20:02:50.653Z,4.95
2022-10-17T20:05:27.370Z,4.03
2022-10-17T20:07:56.501Z,4.88
2022-10-17T20:10:24.198Z,4.80
2022-10-17T20:12:51.873Z,3.97
2022-10-17T20:15:19.585Z,4.88
2022-10-17T20:17:47.416Z,4.40
2022-10-17T20:20:15.194Z,4.72
2022-10-17T20:22:42.936Z,4.83
2022-10-17T20:25:10.682Z,4.35
2022-10-17T20:27:38.511Z,4.72
2022-10-17T20:30:06.464Z,5.23
2022-10-17T20:32:39.624Z,5.03
2022-10-17T20:35:07.774Z,5.43
2022-10-17T20:37:41.446Z,5.43
2022-10-17T20:40:33.665Z,5.22
2022-10-17T20:42:58.290Z,5.20
2022-10-17T20:45:37.582Z,4.68
2022-10-17T20:48:15.255Z,5.53
2022-10-17T20:50:43.237Z,4.95
2022-10-17T20:53:35.621Z,4.57
2022-10-17T20:56:02.230Z,4.93
2022-10-17T20:58:29.877Z,5.13
2022-10-17T21:00:57.618Z,4.95
2022-10-17T21:03:25.869Z,5.00
2022-10-17T21:05:53.689Z,5.03
2022-10-17T21:08:21.384Z,4.65
2022-10-17T21:10:49.035Z,4.80
2022-10-17T21:13:16.805Z,4.40
2022-10-17T21:15:44.437Z,4.60
2022-10-17T21:18:12.147Z,5.10
2022-10-17T21:20:39.794Z,4.70
2022-10-17T21:23:07.522Z,4.95
2022-10-17T21:25:35.186Z,4.70
2022-10-17T21:28:02.941Z,5.75
2022-10-17T21:30:30.692Z,4.53
2022-10-17T21:32:58.841Z,5.22
2022-10-17T21:35:26.679Z,4.82
2022-10-17T21:37:54.453Z,5.23
2022-10-17T21:40:22.089Z,4.97
2022-10-17T21:42:50.355Z,5.22
2022-10-17T21:45:25.253Z,4.53
2022-10-17T21:48:12.070Z,4.70
2022-10-17T21:50:41.582Z,5.30
2022-10-17T21:53:09.290Z,4.90
2022-10-17T21:55:37.732Z,5.30
2022-10-17T21:58:05.431Z,4.50
2022-10-17T22:00:33.153Z,4.50
2022-10-17T22:03:01.149Z,5.10
2022-10-17T22:05:30.384Z,5.60
2022-10-17T22:07:58.062Z,5.80
2022-10-17T22:10:25.826Z,5.97
2022-10-17T22:12:53.553Z,5.65
2022-10-17T22:15:21.193Z,5.22
2022-10-17T22:17:49.050Z,5.63
2022-10-17T22:20:16.744Z,5.20
2022-10-17T22:22:44.487Z,5.30
2022-10-17T22:25:12.191Z,4.93
2022-10-17T22:27:39.911Z,5.47
2022-10-17T22:30:07.863Z,5.70
2022-10-17T22:32:35.641Z,5.40
2022-10-17T22:35:03.343Z,6.17
2022-10-17T22:37:31.394Z,5.88
2022-10-17T22:39:59.403Z,5.47
2022-10-17T22:42:31.621Z,5.57
2022-10-17T22:44:59.510Z,5.30
2022-10-17T22:47:27.318Z,5.25
2022-10-17T22:49:55.155Z,6.43
2022-10-17T22:52:22.846Z,5.80
2022-10-17T22:54:50.586Z,5.28
2022-10-17T22:57:18.234Z,5.45
2022-10-17T22:59:45.948Z,5.90
2022-10-17T23:02:13.724Z,6.05
2022-10-17T23:04:41.892Z,5.40
2022-10-17T23:07:14.294Z,6.22
2022-10-17T23:09:42.218Z,6.45
2022-10-17T23:12:09.988Z,6.15
2022-10-17T23:14:38.016Z,6.40
2022-10-17T23:17:06.273Z,5.93
2022-10-17T23:19:34.392Z,5.88
2022-10-17T23:22:02.281Z,6.30
2022-10-17T23:24:29.998Z,6.33
2022-10-17T23:26:57.735Z,6.95
2022-10-17T23:29:25.584Z,6.60
2022-10-17T23:31:56.705Z,6.70
2022-10-17T23:34:24.365Z,6.93
2022-10-17T23:36:55.162Z,6.97
2022-10-17T23:39:22.854Z,6.00
2022-10-17T23:41:50.664Z,6.90
2022-10-17T23:44:19.335Z,6.93
2022-10-17T23:46:47.055Z,6.82
2022-10-17T23:49:14.801Z,7.57
2022-10-17T23:51:42.546Z,6.82
2022-10-17T23:54:10.327Z,7.28
2022-10-17T23:56:37.973Z,7.55
2022-10-17T23:59:05.741Z,6.78
